Darstellungsparameter: Aktuell verwendete Einstellungen:
Skalierung der Graphiken ... ?
xyx+y,   Skalierungsfaktor:      Skalierung: Modus: x, Faktor: 1
Darstellungszeitraum ... ?
Vom - - bis: - -   Zeitraum: 13.08.2004 - 15.08.2004
Min/Max/Avg-Anzeige ... ?
Zeige MMA aktuell
Zeige MMA Monat
Zeige MMA alles
Zeige --A aktuell
Zeige --A Monat
Zeige --A alles
Keine MMA-Anzeige
MMA:
Minimum Maximum Average (ber die Originaldaten)
MMA-Basis: 13.08.2004 - 15.08.2004
Quicknavigation für Darstellung... ?
Tage:      1T, 2T, 3T, 5T -1T -2T -3T -5T +1T +2T +3T +5T
Wochen: 1W, 2W, 3W -1W -2W -3W +1W +2W +3W
Monate: 1M, 3M, 6M -1M -3M -6M +1M +3M +6M
Jahre:    1J, 3J, 5J, 10J -1J -3J -5J -10J +1J +3J +5J +10J
Nutze für die Darstellung ... ?
Originaldaten oder Mittelwerte auf ...
Stundenbasis Tagesbasis Wochenbasis
Monatsbasis Jahresbasis      Datenbasis: Original-Daten
Darstellen als:
Statistik (Auto) Statistik J:M      Darstellung:
Zur Graphik,    zurück zur Übersicht aller Sensoren.
 
Tabellarische Datenbersicht: ?
 
Sensor: Nr:Datum:Temp:Feuchte:Taupunkt:
Aussen-T/F 1 13-08-2004 00:29:06 16.6 C 77 % 12.55 C
2 13-08-2004 00:59:06 16.6 C 77 % 12.55 C
3 13-08-2004 01:29:06 16.7 C 78 % 12.85 C
4 13-08-2004 01:59:06 16.5 C 77 % 12.46 C
5 13-08-2004 02:29:06 16.7 C 76 % 12.45 C
6 13-08-2004 02:59:07 16.7 C 79 % 13.04 C
7 13-08-2004 03:29:07 16.4 C 80 % 12.94 C
8 13-08-2004 03:59:07 16.8 C 79 % 13.14 C
9 13-08-2004 04:29:07 16.8 C 78 % 12.94 C
10 13-08-2004 04:59:07 15.9 C 82 % 12.83 C
11 13-08-2004 05:29:07 16.2 C 81 % 12.94 C
12 13-08-2004 05:59:08 16.3 C 79 % 12.65 C
13 13-08-2004 06:29:08 16.5 C 79 % 12.85 C
14 13-08-2004 06:59:08 16.5 C 80 % 13.04 C
15 13-08-2004 07:29:08 16.6 C 78 % 12.75 C
16 13-08-2004 07:59:08 16 C 85 % 13.48 C
17 13-08-2004 08:29:08 16.4 C 85 % 13.87 C
18 13-08-2004 08:59:08 16.8 C 81 % 13.52 C
19 13-08-2004 09:29:08 17.7 C 76 % 13.42 C
20 13-08-2004 09:59:08 17.2 C 78 % 13.33 C
21 13-08-2004 10:29:08 16.3 C 86 % 13.95 C
22 13-08-2004 10:59:08 16.6 C 89 % 14.78 C
23 13-08-2004 11:29:08 16.8 C 87 % 14.62 C
24 13-08-2004 11:59:08 18.8 C 75 % 14.28 C
25 13-08-2004 12:29:08 19.5 C 68 % 13.44 C
Sensor: Nr:Datum:Temp:Feuchte:Taupunkt:
Aussen-T/F 26 13-08-2004 12:59:08 19.5 C 71 % 14.1 C
27 13-08-2004 13:29:08 19.7 C 75 % 15.15 C
28 13-08-2004 13:59:08 21.8 C 53 % 11.8 C
29 13-08-2004 14:29:08 22.6 C 47 % 10.72 C
30 13-08-2004 14:59:08 22.5 C 52 % 12.16 C
31 13-08-2004 15:29:08 21.2 C 57 % 12.35 C
32 13-08-2004 15:59:09 21.6 C 53 % 11.62 C
33 13-08-2004 16:29:09 23 C 51 % 12.32 C
34 13-08-2004 16:59:09 20.8 C 59 % 12.5 C
35 13-08-2004 17:29:09 18.2 C 76 % 13.9 C
36 13-08-2004 17:59:09 18.5 C 83 % 15.56 C
37 13-08-2004 18:29:09 20.6 C 67 % 14.26 C
38 13-08-2004 18:59:09 18.2 C 80 % 14.69 C
39 13-08-2004 19:29:09 18.5 C 77 % 14.39 C
40 13-08-2004 19:59:09 17.9 C 78 % 14.01 C
41 13-08-2004 20:29:09 17.9 C 74 % 13.2 C
42 13-08-2004 20:59:09 17.4 C 74 % 12.72 C
43 13-08-2004 21:29:09 17.1 C 78 % 13.24 C
44 13-08-2004 21:59:09 17.3 C 76 % 13.03 C
45 13-08-2004 22:29:09 17.3 C 74 % 12.62 C
46 13-08-2004 22:59:09 17 C 76 % 12.74 C
47 13-08-2004 23:29:09 16.9 C 78 % 13.04 C
48 13-08-2004 23:59:09 16.8 C 78 % 12.94 C
49 14-08-2004 00:29:09 16.8 C 77 % 12.75 C
50 14-08-2004 00:59:10 17 C 76 % 12.74 C
Sensor: Nr:Datum:Temp:Feuchte:Taupunkt:
Aussen-T/F 51 14-08-2004 01:29:10 17 C 76 % 12.74 C
52 14-08-2004 01:59:10 17 C 77 % 12.94 C
53 14-08-2004 02:29:10 16.1 C 84 % 13.4 C
54 14-08-2004 02:59:10 15.9 C 87 % 13.74 C
55 14-08-2004 03:29:10 16 C 86 % 13.66 C
56 14-08-2004 03:59:11 16 C 85 % 13.48 C
57 14-08-2004 04:29:11 15.7 C 87 % 13.54 C
58 14-08-2004 04:59:11 15.8 C 88 % 13.82 C
59 14-08-2004 05:29:11 15.6 C 88 % 13.62 C
60 14-08-2004 05:59:11 15.4 C 91 % 13.94 C
61 14-08-2004 06:29:11 15.4 C 92 % 14.11 C
62 14-08-2004 06:59:11 15.4 C 92 % 14.11 C
63 14-08-2004 07:29:11 15.5 C 92 % 14.21 C
64 14-08-2004 07:59:11 15.9 C 91 % 14.43 C
65 14-08-2004 08:29:11 16.4 C 87 % 14.23 C
66 14-08-2004 08:59:11 16 C 89 % 14.19 C
67 14-08-2004 09:29:11 16.2 C 89 % 14.39 C
68 14-08-2004 09:59:12 16.6 C 88 % 14.6 C
69 14-08-2004 10:29:12 16.8 C 88 % 14.8 C
70 14-08-2004 10:59:12 16.9 C 89 % 15.08 C
71 14-08-2004 11:29:12 16.8 C 89 % 14.98 C
72 14-08-2004 11:59:12 17.5 C 86 % 15.13 C
73 14-08-2004 12:29:12 18.8 C 80 % 15.28 C
74 14-08-2004 12:59:12 18.1 C 82 % 14.98 C
75 14-08-2004 13:29:12 19.3 C 77 % 15.17 C
Sensor: Nr:Datum:Temp:Feuchte:Taupunkt:
Aussen-T/F 76 14-08-2004 13:59:12 18.9 C 76 % 14.58 C
77 14-08-2004 14:29:13 18.9 C 80 % 15.38 C
78 14-08-2004 14:59:13 18.1 C 82 % 14.98 C
79 14-08-2004 15:29:13 19.4 C 79 % 15.66 C
80 14-08-2004 15:59:13 20 C 70 % 14.36 C
81 14-08-2004 16:29:13 19.3 C 77 % 15.17 C
82 14-08-2004 16:59:13 19.4 C 71 % 14.01 C
83 14-08-2004 17:29:13 20.5 C 68 % 14.39 C
84 14-08-2004 17:59:13 20.5 C 67 % 14.16 C
85 14-08-2004 18:29:13 22.8 C 58 % 14.11 C
86 14-08-2004 18:59:13 23.4 C 56 % 14.13 C
87 14-08-2004 19:29:13 22.9 C 60 % 14.73 C
88 14-08-2004 19:59:13 22.9 C 63 % 15.48 C
89 14-08-2004 20:29:13 21.3 C 66 % 14.69 C
90 14-08-2004 20:59:13 19.8 C 73 % 14.82 C
91 14-08-2004 21:29:14 19.2 C 76 % 14.87 C
92 14-08-2004 21:59:14 19.1 C 76 % 14.77 C
93 14-08-2004 22:29:14 19.1 C 75 % 14.57 C
94 14-08-2004 22:59:14 18.9 C 76 % 14.58 C
95 14-08-2004 23:29:14 18.8 C 78 % 14.88 C
96 14-08-2004 23:59:14 18.9 C 77 % 14.78 C
97 15-08-2004 00:29:14 18.3 C 79 % 14.6 C
98 15-08-2004 00:59:14 18.4 C 79 % 14.69 C
99 15-08-2004 01:29:14 18 C 81 % 14.69 C
100 15-08-2004 01:59:14 17.7 C 84 % 14.96 C
Sensor: Nr:Datum:Temp:Feuchte:Taupunkt:
Aussen-T/F 101 15-08-2004 02:29:14 17.5 C 84 % 14.77 C
102 15-08-2004 02:59:14 17.4 C 85 % 14.85 C
103 15-08-2004 03:29:14 17.4 C 85 % 14.85 C
104 15-08-2004 03:59:14 17.3 C 86 % 14.94 C
105 15-08-2004 04:29:14 17.2 C 85 % 14.66 C
106 15-08-2004 04:59:14 17.3 C 86 % 14.94 C
107 15-08-2004 05:29:14 17.2 C 85 % 14.66 C
108 15-08-2004 05:59:14 17.1 C 86 % 14.74 C
109 15-08-2004 06:29:14 17.1 C 86 % 14.74 C
110 15-08-2004 06:59:14 17.3 C 85 % 14.76 C
111 15-08-2004 07:29:15 17.3 C 85 % 14.76 C
112 15-08-2004 07:59:15 17.5 C 85 % 14.95 C
113 15-08-2004 08:29:15 17.7 C 84 % 14.96 C
114 15-08-2004 08:59:15 18.5 C 80 % 14.99 C
115 15-08-2004 09:29:15 19.1 C 76 % 14.77 C
116 15-08-2004 09:59:15 19.3 C 73 % 14.34 C
117 15-08-2004 10:29:15 19.8 C 70 % 14.17 C
118 15-08-2004 10:59:15 20.6 C 65 % 13.79 C
119 15-08-2004 11:29:15 21.2 C 60 % 13.13 C
120 15-08-2004 11:59:15 21.4 C 58 % 12.8 C
121 15-08-2004 12:29:15 22.7 C 54 % 12.92 C
122 15-08-2004 12:59:15 23.2 C 52 % 12.8 C
123 15-08-2004 13:29:15 24.1 C 47 % 12.09 C
124 15-08-2004 13:59:15 24.8 C 44 % 11.72 C
125 15-08-2004 14:29:16 26.1 C 45 % 13.24 C
Sensor: Nr:Datum:Temp:Feuchte:Taupunkt:
Aussen-T/F 126 15-08-2004 14:59:16 26.4 C 40 % 11.72 C
127 15-08-2004 15:29:16 27.1 C 36 % 10.75 C
128 15-08-2004 15:59:16 27.7 C 33 % 9.97 C
129 15-08-2004 16:29:16 28.2 C 34 % 10.86 C
130 15-08-2004 16:59:16 27.3 C 32 % 9.17 C
131 15-08-2004 17:29:16 28 C 32 % 9.77 C
132 15-08-2004 17:59:16 28.7 C 31 % 9.91 C
133 15-08-2004 18:29:16 29.2 C 30 % 9.85 C
134 15-08-2004 18:59:16 29.8 C 33 % 11.8 C
135 15-08-2004 19:29:16 29.3 C 37 % 13.1 C
136 15-08-2004 19:59:16 26.2 C 41 % 11.91 C
137 15-08-2004 20:29:16 23.7 C 50 % 12.67 C
138 15-08-2004 20:59:16 22.3 C 56 % 13.1 C
139 15-08-2004 21:29:16 21.6 C 59 % 13.25 C
140 15-08-2004 21:59:16 21.1 C 59 % 12.78 C
141 15-08-2004 22:29:16 20.6 C 65 % 13.79 C
142 15-08-2004 22:59:16 19.7 C 68 % 13.63 C
143 15-08-2004 23:29:16 19.2 C 69 % 13.38 C
144 15-08-2004 23:59:16 18.7 C 73 % 13.76 C

Legende:
   Min
   Max


Maximal/Minimal-Werte vom 13.08.2004 - 15.08.2004

Sensor Min Max Avg
Temp
(Aussen-T/F)
15.4 °C
14-08-2004  05:59:11
29.8 °C
15-08-2004  18:59:16
19.19 °C
Feuchte
(Aussen-T/F)
30 %
15-08-2004  18:29:16
92 %
14-08-2004  06:29:11
72.4 %
Taupunkt
(Aussen-T/F)
9.17 C
15-08-2004  16:59:16
15.66 C
14-08-2004  15:29:13
13.52 C

Die Daten stammen von einer Davis Vantage Pro 2 Wetter-Station und werden unter Linux mit der Software wview2wettercgi und aufbereitet. Alle Angaben erfolgen ohne Gewähr für ihre Vollständigkeit oder Richtigkeit.
Kontakt: Rainer Krienke krienke@uni-koblenz.de . Meine Webseiten an der Uni Koblenz oder privat.
Version: $Revision: 0.78 $